createdAt,value
2018-02-20T00:00:26.494Z,83.58
2018-02-20T00:02:53.956Z,83.76
2018-02-20T00:05:21.404Z,84.54
2018-02-20T00:07:49.115Z,83.36
2018-02-20T00:10:16.573Z,83.76
2018-02-20T00:12:44.083Z,83.88
2018-02-20T00:15:12.426Z,85.38
2018-02-20T00:17:40.869Z,85.39
2018-02-20T00:20:08.318Z,85.40
2018-02-20T00:22:36.024Z,86.58
2018-02-20T00:25:03.489Z,86.53
2018-02-20T00:27:30.965Z,86.44
2018-02-20T00:29:58.716Z,86.06
2018-02-20T00:32:26.168Z,85.59
2018-02-20T00:34:53.617Z,85.93
2018-02-20T00:37:21.411Z,85.77
2018-02-20T00:39:48.861Z,85.25
2018-02-20T00:42:16.325Z,86.66
2018-02-20T00:44:44.101Z,86.81
2018-02-20T00:47:11.554Z,87.21
2018-02-20T00:49:39.015Z,87.79
2018-02-20T00:52:07.084Z,88.04
2018-02-20T00:54:34.550Z,88.41
2018-02-20T00:57:02.306Z,88.13
2018-02-20T00:59:30.336Z,89.29
2018-02-20T01:01:57.800Z,89.40
2018-02-20T01:04:25.253Z,88.22
2018-02-20T01:06:53.081Z,88.12
2018-02-20T01:09:20.566Z,88.19
2018-02-20T01:11:48.032Z,87.88
2018-02-20T01:14:15.763Z,87.67
2018-02-20T01:16:43.225Z,87.51
2018-02-20T01:19:11.313Z,87.34
2018-02-20T01:21:39.104Z,87.69
2018-02-20T01:24:06.568Z,86.77
2018-02-20T01:26:34.039Z,86.22
2018-02-20T01:29:02.047Z,86.60
2018-02-20T01:31:29.528Z,86.32
2018-02-20T01:33:56.983Z,86.34
2018-02-20T01:36:24.744Z,87.13
2018-02-20T01:38:52.202Z,87.23
2018-02-20T01:41:19.681Z,86.77
2018-02-20T01:43:47.734Z,85.97
2018-02-20T01:46:15.213Z,85.15
2018-02-20T01:48:42.670Z,85.44
2018-02-20T01:51:10.500Z,85.57
2018-02-20T01:53:37.953Z,85.64
2018-02-20T01:56:05.410Z,86.14
2018-02-20T01:58:33.117Z,86.59
2018-02-20T02:01:00.584Z,86.91
2018-02-20T02:03:28.037Z,86.74
2018-02-20T02:05:55.805Z,87.46
2018-02-20T02:08:23.296Z,87.50
2018-02-20T02:10:50.762Z,87.92
2018-02-20T02:13:18.497Z,88.49
2018-02-20T02:15:45.988Z,88.78
2018-02-20T02:18:13.490Z,89.70
2018-02-20T02:20:42.441Z,89.80
2018-02-20T02:23:09.917Z,90.01
2018-02-20T02:25:37.365Z,89.31
2018-02-20T02:28:05.705Z,90.33
2018-02-20T02:30:33.161Z,90.03
2018-02-20T02:33:00.628Z,89.68
2018-02-20T02:35:28.399Z,89.88
2018-02-20T02:37:55.890Z,90.69
2018-02-20T02:40:23.365Z,91.71
2018-02-20T02:42:51.196Z,90.90
2018-02-20T02:45:18.653Z,90.47
2018-02-20T02:47:46.110Z,90.81
2018-02-20T02:50:14.077Z,90.60
2018-02-20T02:52:41.552Z,91.98
2018-02-20T02:55:09.004Z,91.85
2018-02-20T02:57:36.751Z,91.58
2018-02-20T03:00:04.208Z,92.98
2018-02-20T03:02:31.677Z,94.47
2018-02-20T03:04:59.445Z,95.13
2018-02-20T03:07:26.913Z,95.27
2018-02-20T03:09:54.373Z,95.64
2018-02-20T03:12:22.145Z,94.04
2018-02-20T03:14:49.598Z,95.16
2018-02-20T03:17:17.060Z,96.55
2018-02-20T03:19:44.817Z,95.88
2018-02-20T03:22:12.653Z,95.15
2018-02-20T03:24:40.104Z,95.71
2018-02-20T03:27:07.832Z,96.45
2018-02-20T03:29:35.293Z,96.91
2018-02-20T03:32:02.759Z,97.97
2018-02-20T03:34:30.493Z,97.19
2018-02-20T03:36:58.000Z,97.38
2018-02-20T03:39:25.454Z,97.19
2018-02-20T03:41:53.191Z,97.66
2018-02-20T03:44:20.645Z,98.03
2018-02-20T03:46:48.141Z,98.34
2018-02-20T03:49:15.787Z,98.20
2018-02-20T03:51:43.249Z,98.49
2018-02-20T03:54:10.708Z,98.52
2018-02-20T03:56:39.488Z,97.68
2018-02-20T03:59:06.944Z,98.29
2018-02-20T04:01:34.396Z,98.24
2018-02-20T04:04:02.134Z,98.91
2018-02-20T04:06:29.612Z,98.80
2018-02-20T04:08:57.065Z,98.12
2018-02-20T04:11:24.864Z,97.89
2018-02-20T04:13:52.338Z,98.16
2018-02-20T04:16:19.801Z,98.07
2018-02-20T04:18:47.537Z,99.25
2018-02-20T04:21:15.008Z,98.82
2018-02-20T04:23:43.444Z,97.42
2018-02-20T04:26:11.137Z,97.32
2018-02-20T04:28:38.605Z,97.59
2018-02-20T04:31:06.074Z,97.95
2018-02-20T04:33:33.809Z,99.68
2018-02-20T04:36:01.269Z,100.00
2018-02-20T04:38:28.726Z,100.00
2018-02-20T04:40:56.849Z,100.00
2018-02-20T04:43:24.317Z,100.00
2018-02-20T04:45:51.778Z,100.00
2018-02-20T04:48:19.506Z,100.00
2018-02-20T04:50:46.966Z,100.00
2018-02-20T04:53:14.432Z,100.00
2018-02-20T04:55:42.197Z,100.00
2018-02-20T04:58:09.668Z,100.00
2018-02-20T05:00:37.144Z,100.00
2018-02-20T05:03:04.894Z,100.00
2018-02-20T05:05:32.349Z,100.00
2018-02-20T05:07:59.799Z,100.00
2018-02-20T05:10:27.576Z,100.00
2018-02-20T05:12:55.036Z,100.00
2018-02-20T05:15:22.512Z,100.00
2018-02-20T05:17:50.260Z,100.00
2018-02-20T05:20:17.721Z,100.00
2018-02-20T05:22:45.183Z,100.00
2018-02-20T05:25:13.561Z,100.00
2018-02-20T05:27:41.024Z,100.00
2018-02-20T05:30:08.488Z,100.00
2018-02-20T05:32:36.261Z,100.00
2018-02-20T05:35:03.716Z,100.00
2018-02-20T05:37:31.178Z,100.00
2018-02-20T05:39:58.938Z,100.00
2018-02-20T05:42:27.825Z,100.00
2018-02-20T05:44:55.289Z,100.00
2018-02-20T05:47:22.928Z,100.00
2018-02-20T05:49:50.385Z,100.00
2018-02-20T05:52:17.845Z,100.00
2018-02-20T05:54:45.690Z,100.00
2018-02-20T05:57:13.561Z,100.00
2018-02-20T05:59:41.016Z,100.00
2018-02-20T06:02:08.847Z,100.00
2018-02-20T06:04:36.306Z,100.00
2018-02-20T06:07:03.766Z,100.00
2018-02-20T06:09:31.534Z,100.00
2018-02-20T06:11:59.000Z,100.00
2018-02-20T06:14:26.465Z,100.00
2018-02-20T06:16:54.246Z,100.00
2018-02-20T06:19:21.684Z,100.00
2018-02-20T06:21:49.166Z,100.00
2018-02-20T06:24:16.903Z,100.00
2018-02-20T06:26:44.744Z,100.00
2018-02-20T06:29:12.210Z,100.00
2018-02-20T06:31:40.040Z,100.00
2018-02-20T06:34:07.501Z,100.00
2018-02-20T06:36:34.961Z,100.00
2018-02-20T06:39:02.738Z,100.00
2018-02-20T06:41:30.201Z,100.00
2018-02-20T06:43:57.662Z,100.00
2018-02-20T06:46:25.579Z,100.00
2018-02-20T06:48:53.051Z,100.00
2018-02-20T06:51:20.512Z,100.00
2018-02-20T06:53:48.253Z,100.00
2018-02-20T06:56:15.709Z,100.00
2018-02-20T06:58:43.163Z,100.00
2018-02-20T07:01:10.807Z,100.00
2018-02-20T07:03:38.267Z,100.00
2018-02-20T07:06:05.742Z,100.00
2018-02-20T07:08:33.643Z,100.00
2018-02-20T07:11:01.100Z,100.00
2018-02-20T07:13:28.568Z,100.00
2018-02-20T07:15:56.320Z,100.00
2018-02-20T07:18:23.775Z,100.00
2018-02-20T07:20:51.238Z,100.00
2018-02-20T07:23:19.317Z,100.00
2018-02-20T07:25:46.778Z,99.90
2018-02-20T07:28:14.920Z,97.70
2018-02-20T07:30:42.950Z,99.35
2018-02-20T07:33:10.401Z,99.32
2018-02-20T07:35:37.861Z,100.00
2018-02-20T07:38:05.625Z,99.92
2018-02-20T07:40:33.116Z,100.00
2018-02-20T07:43:00.587Z,99.63
2018-02-20T07:45:28.308Z,98.75
2018-02-20T07:47:55.764Z,98.86
2018-02-20T07:50:23.221Z,100.00
2018-02-20T07:52:51.297Z,97.30
2018-02-20T07:55:18.753Z,94.00
2018-02-20T07:57:46.205Z,93.88
2018-02-20T08:00:14.272Z,92.96
2018-02-20T08:02:41.723Z,94.68
2018-02-20T08:05:09.182Z,94.27
2018-02-20T08:07:36.965Z,90.93
2018-02-20T08:10:04.416Z,90.95
2018-02-20T08:12:31.869Z,89.35
2018-02-20T08:14:59.512Z,89.07
2018-02-20T08:17:26.994Z,89.86
2018-02-20T08:19:54.461Z,89.84
2018-02-20T08:22:22.333Z,90.07
2018-02-20T08:24:49.786Z,89.51
2018-02-20T08:27:17.250Z,90.77
2018-02-20T08:29:45.657Z,88.47
2018-02-20T08:32:13.114Z,89.69
2018-02-20T08:34:40.565Z,86.88
2018-02-20T08:37:08.333Z,87.41
2018-02-20T08:39:35.785Z,88.21
2018-02-20T08:42:03.242Z,89.32
2018-02-20T08:44:31.328Z,90.59
2018-02-20T08:46:58.801Z,91.72
2018-02-20T08:49:26.549Z,89.24
2018-02-20T08:51:54.621Z,90.74
2018-02-20T08:54:22.140Z,90.33
2018-02-20T08:56:49.597Z,90.53
2018-02-20T08:59:17.638Z,91.94
2018-02-20T09:01:45.085Z,93.63
2018-02-20T09:04:12.537Z,92.36
2018-02-20T09:06:40.311Z,94.45
2018-02-20T09:09:07.774Z,93.23
2018-02-20T09:11:35.226Z,90.64
2018-02-20T09:14:02.992Z,89.75
2018-02-20T09:16:30.510Z,89.27
2018-02-20T09:18:57.962Z,87.73
2018-02-20T09:21:26.284Z,89.94
2018-02-20T09:23:53.736Z,91.08
2018-02-20T09:26:21.201Z,92.69
2018-02-20T09:28:48.977Z,95.67
2018-02-20T09:31:17.133Z,92.45
2018-02-20T09:33:44.580Z,91.77
2018-02-20T09:36:12.597Z,89.83
2018-02-20T09:38:40.099Z,87.98
2018-02-20T09:41:07.564Z,88.13
2018-02-20T09:43:35.595Z,85.69
2018-02-20T09:46:03.049Z,90.35
2018-02-20T09:48:30.510Z,91.37
2018-02-20T09:50:58.276Z,89.61
2018-02-20T09:53:25.725Z,90.91
2018-02-20T09:55:53.186Z,87.46
2018-02-20T09:58:20.972Z,85.33
2018-02-20T10:00:48.425Z,85.77
2018-02-20T10:03:15.884Z,89.95
2018-02-20T10:05:44.214Z,89.44
2018-02-20T10:08:11.668Z,90.27
2018-02-20T10:10:39.231Z,87.49
2018-02-20T10:13:06.945Z,87.85
2018-02-20T10:15:34.395Z,85.12
2018-02-20T10:18:01.852Z,85.60
2018-02-20T10:20:29.647Z,85.98
2018-02-20T10:22:57.106Z,83.74
2018-02-20T10:25:24.603Z,84.07
2018-02-20T10:27:52.665Z,82.84
2018-02-20T10:30:20.117Z,82.88
2018-02-20T10:32:49.457Z,82.05
2018-02-20T10:35:17.158Z,82.81
2018-02-20T10:37:44.616Z,80.97
2018-02-20T10:40:12.067Z,80.57
2018-02-20T10:42:39.895Z,81.50
2018-02-20T10:45:07.357Z,80.19
2018-02-20T10:47:34.813Z,80.45
2018-02-20T10:50:02.529Z,79.64
2018-02-20T10:52:29.978Z,81.75
2018-02-20T10:54:57.432Z,84.00
2018-02-20T10:57:25.181Z,82.72
2018-02-20T10:59:52.633Z,79.50
2018-02-20T11:02:20.166Z,80.16
2018-02-20T11:04:47.905Z,78.50
2018-02-20T11:07:15.357Z,78.64
2018-02-20T11:09:42.817Z,77.93
2018-02-20T11:12:10.598Z,80.44
2018-02-20T11:14:38.065Z,80.21
2018-02-20T11:17:05.519Z,76.93
2018-02-20T11:19:33.548Z,77.75
2018-02-20T11:22:01.005Z,75.30
2018-02-20T11:24:28.556Z,77.60
2018-02-20T11:26:56.577Z,80.28
2018-02-20T11:29:24.021Z,79.42
2018-02-20T11:31:51.575Z,79.83
2018-02-20T11:34:19.293Z,82.96
2018-02-20T11:36:46.740Z,80.30
2018-02-20T11:39:14.202Z,80.30
2018-02-20T11:41:41.981Z,80.12
2018-02-20T11:44:09.432Z,82.70
2018-02-20T11:46:36.888Z,82.05
2018-02-20T11:49:04.648Z,83.67
2018-02-20T11:51:32.110Z,82.55
2018-02-20T11:53:59.566Z,83.52
2018-02-20T11:56:27.654Z,83.10
2018-02-20T11:58:55.145Z,81.87
2018-02-20T12:01:22.613Z,84.51
2018-02-20T12:03:50.626Z,82.04
2018-02-20T12:06:18.137Z,84.12
2018-02-20T12:08:45.600Z,83.95
2018-02-20T12:11:13.267Z,82.82
2018-02-20T12:13:40.719Z,82.04
2018-02-20T12:16:08.181Z,82.36
2018-02-20T12:18:36.317Z,83.65
2018-02-20T12:21:03.773Z,84.41
2018-02-20T12:23:31.236Z,84.19
2018-02-20T12:25:59.001Z,85.84
2018-02-20T12:28:26.460Z,86.93
2018-02-20T12:30:53.934Z,87.38
2018-02-20T12:33:21.690Z,89.06
2018-02-20T12:35:49.870Z,89.99
2018-02-20T12:38:17.301Z,90.11
2018-02-20T12:40:45.297Z,89.60
2018-02-20T12:43:12.747Z,90.58
2018-02-20T12:45:40.204Z,90.05
2018-02-20T12:48:08.029Z,90.20
2018-02-20T12:50:35.482Z,93.52
2018-02-20T12:53:02.944Z,94.71
2018-02-20T12:55:30.669Z,94.95
2018-02-20T12:57:58.128Z,95.54
2018-02-20T13:00:25.597Z,96.26
2018-02-20T13:02:53.309Z,96.23
2018-02-20T13:05:20.765Z,97.87
2018-02-20T13:07:48.236Z,97.37
2018-02-20T13:10:16.091Z,98.26
2018-02-20T13:12:43.561Z,100.00
2018-02-20T13:15:11.020Z,99.50
2018-02-20T13:17:38.739Z,100.00
2018-02-20T13:20:06.193Z,100.00
2018-02-20T13:22:33.654Z,100.00
2018-02-20T13:25:01.440Z,100.00
2018-02-20T13:27:28.906Z,98.93
2018-02-20T13:29:56.364Z,99.66
2018-02-20T13:32:24.129Z,99.18
2018-02-20T13:34:51.587Z,99.57
2018-02-20T13:37:20.008Z,99.97
2018-02-20T13:39:47.713Z,100.00
2018-02-20T13:42:15.184Z,100.00
2018-02-20T13:44:42.653Z,100.00
2018-02-20T13:47:10.395Z,100.00
2018-02-20T13:49:37.848Z,100.00
2018-02-20T13:52:05.312Z,100.00
2018-02-20T13:54:33.389Z,100.00
2018-02-20T13:57:00.852Z,100.00
2018-02-20T13:59:28.312Z,99.49
2018-02-20T14:01:56.091Z,99.19
2018-02-20T14:04:23.579Z,98.87
2018-02-20T14:06:51.045Z,100.00
2018-02-20T14:09:18.712Z,98.09
2018-02-20T14:11:46.180Z,97.92
2018-02-20T14:14:13.670Z,98.34
2018-02-20T14:16:41.450Z,98.56
2018-02-20T14:19:08.916Z,100.00
2018-02-20T14:21:36.380Z,98.75
2018-02-20T14:24:04.112Z,99.47
2018-02-20T14:26:31.574Z,98.80
2018-02-20T14:28:59.033Z,98.08
2018-02-20T14:31:26.819Z,98.67
2018-02-20T14:33:54.777Z,99.25
2018-02-20T14:36:22.234Z,99.20
2018-02-20T14:38:50.385Z,99.39
2018-02-20T14:41:17.842Z,99.26
2018-02-20T14:43:45.303Z,100.00
2018-02-20T14:46:13.126Z,100.00
2018-02-20T14:48:40.586Z,99.20
2018-02-20T14:51:08.048Z,98.33
2018-02-20T14:53:35.805Z,99.65
2018-02-20T14:56:03.254Z,98.33
2018-02-20T14:58:30.709Z,98.08
2018-02-20T15:00:58.492Z,97.20
2018-02-20T15:03:25.977Z,97.67
2018-02-20T15:05:53.424Z,97.82
2018-02-20T15:08:21.258Z,97.07
2018-02-20T15:10:48.711Z,96.60
2018-02-20T15:13:16.173Z,96.47
2018-02-20T15:15:43.861Z,96.16
2018-02-20T15:18:11.318Z,97.12
2018-02-20T15:20:38.772Z,97.08
2018-02-20T15:23:06.554Z,95.99
2018-02-20T15:25:34.014Z,96.64
2018-02-20T15:28:01.468Z,96.14
2018-02-20T15:30:29.241Z,96.04
2018-02-20T15:32:56.717Z,98.55
2018-02-20T15:35:24.177Z,99.23
2018-02-20T15:37:51.934Z,100.00
2018-02-20T15:40:19.450Z,99.77
2018-02-20T15:42:46.896Z,98.31
2018-02-20T15:45:14.935Z,97.60
2018-02-20T15:47:42.396Z,97.03
2018-02-20T15:50:09.858Z,97.83
2018-02-20T15:52:37.615Z,97.68
2018-02-20T15:55:05.079Z,97.77
2018-02-20T15:57:32.555Z,98.81
2018-02-20T16:00:00.304Z,97.48
2018-02-20T16:02:27.762Z,98.63
2018-02-20T16:04:55.213Z,97.48
2018-02-20T16:07:22.981Z,98.43
2018-02-20T16:09:50.433Z,97.86
2018-02-20T16:12:17.880Z,98.00
2018-02-20T16:14:45.622Z,99.16
2018-02-20T16:17:13.074Z,97.49
2018-02-20T16:19:40.536Z,97.62
2018-02-20T16:22:08.375Z,99.15
2018-02-20T16:24:35.821Z,98.25
2018-02-20T16:27:03.278Z,97.59
2018-02-20T16:29:31.058Z,100.00
2018-02-20T16:31:58.526Z,100.00
2018-02-20T16:34:25.988Z,100.00
2018-02-20T16:36:54.037Z,100.00
2018-02-20T16:39:22.065Z,100.00
2018-02-20T16:41:52.106Z,100.00
2018-02-20T16:44:20.096Z,100.00
2018-02-20T16:46:47.548Z,100.00
2018-02-20T16:49:15.043Z,100.00
2018-02-20T16:51:43.101Z,100.00
2018-02-20T16:54:10.565Z,100.00
2018-02-20T16:56:38.025Z,100.00
2018-02-20T16:59:05.789Z,100.00
2018-02-20T17:01:33.255Z,100.00
2018-02-20T17:04:00.713Z,100.00
2018-02-20T17:06:28.789Z,100.00
2018-02-20T17:08:56.246Z,100.00
2018-02-20T17:11:23.716Z,100.00
2018-02-20T17:13:51.457Z,100.00
2018-02-20T17:16:18.923Z,100.00
2018-02-20T17:18:46.401Z,100.00
2018-02-20T17:21:14.157Z,100.00
2018-02-20T17:23:41.626Z,100.00
2018-02-20T17:26:09.089Z,100.00
2018-02-20T17:28:36.869Z,100.00
2018-02-20T17:31:04.360Z,100.00
2018-02-20T17:33:31.817Z,100.00
2018-02-20T17:35:59.536Z,100.00
2018-02-20T17:38:27.009Z,100.00
2018-02-20T17:40:54.487Z,100.00
2018-02-20T17:43:22.832Z,100.00
2018-02-20T17:45:50.290Z,100.00
2018-02-20T17:48:17.747Z,100.00
2018-02-20T17:50:45.518Z,100.00
2018-02-20T17:53:12.977Z,100.00
2018-02-20T17:55:40.441Z,100.00
2018-02-20T17:58:08.251Z,100.00
2018-02-20T18:00:35.706Z,100.00
2018-02-20T18:03:03.173Z,100.00
2018-02-20T18:05:30.922Z,100.00
2018-02-20T18:07:58.399Z,100.00
2018-02-20T18:10:25.856Z,100.00
2018-02-20T18:12:53.892Z,100.00
2018-02-20T18:15:21.350Z,100.00
2018-02-20T18:17:48.809Z,100.00
2018-02-20T18:20:16.882Z,100.00
2018-02-20T18:22:44.376Z,100.00
2018-02-20T18:25:11.845Z,100.00
2018-02-20T18:27:39.917Z,100.00
2018-02-20T18:30:07.382Z,100.00
2018-02-20T18:32:34.871Z,100.00
2018-02-20T18:35:02.874Z,100.00
2018-02-20T18:37:30.369Z,100.00
2018-02-20T18:39:57.831Z,100.00
2018-02-20T18:42:25.871Z,100.00
2018-02-20T18:44:53.707Z,100.00
2018-02-20T18:47:21.165Z,100.00
2018-02-20T18:49:48.878Z,100.00
2018-02-20T18:52:16.345Z,100.00
2018-02-20T18:54:43.859Z,100.00
2018-02-20T18:57:11.576Z,100.00
2018-02-20T18:59:39.025Z,100.00
2018-02-20T19:02:06.486Z,100.00
2018-02-20T19:04:34.582Z,100.00
2018-02-20T19:07:02.049Z,100.00
2018-02-20T19:09:29.528Z,100.00
2018-02-20T19:11:57.216Z,100.00
2018-02-20T19:14:24.687Z,100.00
2018-02-20T19:16:52.153Z,100.00
2018-02-20T19:19:20.188Z,100.00
2018-02-20T19:21:47.671Z,100.00
2018-02-20T19:24:15.124Z,100.00
2018-02-20T19:26:43.024Z,100.00
2018-02-20T19:29:10.480Z,100.00
2018-02-20T19:31:37.963Z,100.00
2018-02-20T19:34:05.892Z,100.00
2018-02-20T19:36:33.437Z,100.00
2018-02-20T19:39:00.909Z,100.00
2018-02-20T19:41:28.607Z,100.00
2018-02-20T19:43:56.074Z,100.00
2018-02-20T19:46:23.892Z,100.00
2018-02-20T19:48:51.597Z,100.00
2018-02-20T19:51:19.057Z,100.00
2018-02-20T19:53:46.511Z,100.00
2018-02-20T19:56:14.733Z,100.00
2018-02-20T19:58:42.189Z,100.00
2018-02-20T20:01:09.663Z,100.00
2018-02-20T20:03:37.474Z,100.00
2018-02-20T20:06:04.946Z,100.00
2018-02-20T20:08:32.423Z,100.00
2018-02-20T20:11:00.259Z,100.00
2018-02-20T20:13:27.719Z,100.00
2018-02-20T20:15:55.181Z,100.00
2018-02-20T20:18:22.940Z,100.00
2018-02-20T20:20:50.402Z,100.00
2018-02-20T20:23:17.863Z,100.00
2018-02-20T20:25:45.628Z,100.00
2018-02-20T20:28:13.090Z,100.00
2018-02-20T20:30:40.569Z,100.00
2018-02-20T20:33:08.313Z,100.00
2018-02-20T20:35:35.784Z,100.00
2018-02-20T20:38:03.240Z,100.00
2018-02-20T20:40:31.314Z,100.00
2018-02-20T20:42:58.781Z,100.00
2018-02-20T20:45:26.237Z,100.00
2018-02-20T20:47:54.297Z,100.00
2018-02-20T20:50:21.754Z,100.00
2018-02-20T20:52:49.227Z,100.00
2018-02-20T20:55:17.037Z,100.00
2018-02-20T20:57:44.460Z,100.00
2018-02-20T21:00:11.916Z,100.00
2018-02-20T21:02:39.670Z,100.00
2018-02-20T21:05:07.133Z,100.00
2018-02-20T21:07:34.801Z,100.00
2018-02-20T21:10:02.622Z,100.00
2018-02-20T21:12:30.086Z,100.00
2018-02-20T21:14:58.282Z,100.00
2018-02-20T21:17:26.274Z,100.00
2018-02-20T21:19:53.750Z,100.00
2018-02-20T21:22:21.222Z,100.00
2018-02-20T21:24:48.961Z,100.00
2018-02-20T21:27:16.425Z,100.00
2018-02-20T21:29:43.884Z,100.00
2018-02-20T21:32:11.646Z,100.00
2018-02-20T21:34:39.116Z,100.00
2018-02-20T21:37:06.577Z,100.00
2018-02-20T21:39:34.380Z,100.00
2018-02-20T21:42:01.835Z,100.00
2018-02-20T21:44:29.322Z,100.00
2018-02-20T21:46:57.021Z,100.00
2018-02-20T21:49:25.792Z,100.00
2018-02-20T21:51:53.274Z,100.00
2018-02-20T21:54:21.249Z,100.00
2018-02-20T21:56:48.710Z,100.00
2018-02-20T21:59:16.177Z,100.00
2018-02-20T22:01:43.975Z,100.00
2018-02-20T22:04:11.440Z,100.00
2018-02-20T22:06:39.206Z,100.00
2018-02-20T22:09:06.945Z,100.00
2018-02-20T22:11:34.413Z,100.00
2018-02-20T22:14:01.877Z,100.00
2018-02-20T22:16:29.618Z,100.00
2018-02-20T22:18:57.085Z,100.00
2018-02-20T22:21:24.549Z,100.00
2018-02-20T22:23:52.302Z,100.00
2018-02-20T22:26:19.822Z,100.00
2018-02-20T22:28:47.263Z,100.00
2018-02-20T22:31:15.035Z,100.00
2018-02-20T22:33:42.500Z,100.00
2018-02-20T22:36:09.966Z,100.00
2018-02-20T22:38:38.293Z,100.00
2018-02-20T22:41:05.768Z,100.00
2018-02-20T22:43:33.226Z,100.00
2018-02-20T22:46:00.970Z,100.00
2018-02-20T22:48:28.445Z,100.00
2018-02-20T22:50:56.898Z,100.00
2018-02-20T22:53:24.892Z,100.00
2018-02-20T22:55:52.353Z,100.00
2018-02-20T22:58:19.999Z,100.00
2018-02-20T23:00:47.906Z,100.00
2018-02-20T23:03:15.360Z,100.00
2018-02-20T23:05:42.823Z,100.00
2018-02-20T23:08:10.579Z,100.00
2018-02-20T23:10:38.050Z,100.00
2018-02-20T23:13:05.524Z,100.00
2018-02-20T23:15:33.282Z,100.00
2018-02-20T23:18:00.744Z,100.00
2018-02-20T23:20:28.224Z,100.00
2018-02-20T23:22:56.298Z,100.00
2018-02-20T23:25:23.775Z,100.00
2018-02-20T23:27:51.241Z,100.00
2018-02-20T23:30:19.561Z,100.00
2018-02-20T23:32:47.026Z,100.00
2018-02-20T23:35:14.489Z,100.00
2018-02-20T23:37:42.245Z,100.00
2018-02-20T23:40:09.712Z,100.00
2018-02-20T23:42:37.328Z,100.00
2018-02-20T23:45:05.179Z,100.00
2018-02-20T23:47:32.644Z,100.00
2018-02-20T23:50:00.119Z,100.00
2018-02-20T23:52:28.537Z,100.00
2018-02-20T23:54:56.004Z,100.00
2018-02-20T23:57:23.471Z,100.00
2018-02-20T23:59:51.268Z,100.00
